createdAt,value
2018-11-02T00:00:12.615Z,954.24
2018-11-02T00:01:12.533Z,954.26
2018-11-02T00:02:12.522Z,954.27
2018-11-02T00:03:12.508Z,954.25
2018-11-02T00:04:12.494Z,954.23
2018-11-02T00:05:12.481Z,954.25
2018-11-02T00:06:12.570Z,954.27
2018-11-02T00:07:12.457Z,954.21
2018-11-02T00:08:12.444Z,954.25
2018-11-02T00:09:12.459Z,954.28
2018-11-02T00:10:12.417Z,954.27
2018-11-02T00:11:12.402Z,954.25
2018-11-02T00:12:12.449Z,954.28
2018-11-02T00:13:12.378Z,954.23
2018-11-02T00:14:12.364Z,954.21
2018-11-02T00:15:12.351Z,954.24
2018-11-02T00:16:12.340Z,954.23
2018-11-02T00:17:12.328Z,954.21
2018-11-02T00:18:12.313Z,954.23
2018-11-02T00:19:12.299Z,954.22
2018-11-02T00:20:12.288Z,954.23
2018-11-02T00:21:12.275Z,954.25
2018-11-02T00:22:12.262Z,954.24
2018-11-02T00:23:12.247Z,954.29
2018-11-02T00:24:12.235Z,954.27
2018-11-02T00:25:12.222Z,954.31
2018-11-02T00:26:12.209Z,954.28
2018-11-02T00:27:12.195Z,954.28
2018-11-02T00:28:12.182Z,954.32
2018-11-02T00:29:12.184Z,954.28
2018-11-02T00:30:12.156Z,954.26
2018-11-02T00:31:12.143Z,954.21
2018-11-02T00:32:12.128Z,954.23
2018-11-02T00:33:12.117Z,954.23
2018-11-02T00:34:12.104Z,954.17
2018-11-02T00:35:12.088Z,954.19
2018-11-02T00:36:12.074Z,954.16
2018-11-02T00:37:12.062Z,954.15
2018-11-02T00:38:12.047Z,954.14
2018-11-02T00:39:12.033Z,954.16
2018-11-02T00:40:12.021Z,954.19
2018-11-02T00:41:12.008Z,954.18
2018-11-02T00:42:11.995Z,954.19
2018-11-02T00:43:11.983Z,954.22
2018-11-02T00:44:12.005Z,954.18
2018-11-02T00:45:11.953Z,954.17
2018-11-02T00:46:11.941Z,954.19
2018-11-02T00:47:11.953Z,954.17
2018-11-02T00:48:11.914Z,954.2
2018-11-02T00:49:11.901Z,954.14
2018-11-02T00:50:11.887Z,954.12
2018-11-02T00:51:11.875Z,954.14
2018-11-02T00:52:11.860Z,954.15
2018-11-02T00:53:11.847Z,954.17
2018-11-02T00:54:11.833Z,954.2
2018-11-02T00:55:11.818Z,954.16
2018-11-02T00:56:11.803Z,954.22
2018-11-02T00:57:11.791Z,954.19
2018-11-02T00:58:11.778Z,954.15
2018-11-02T00:59:11.765Z,954.2
2018-11-02T01:00:11.752Z,954.22
2018-11-02T01:01:11.737Z,954.25
2018-11-02T01:02:11.726Z,954.23
2018-11-02T01:03:11.711Z,954.26
2018-11-02T01:04:11.697Z,954.23
2018-11-02T01:05:11.683Z,954.31
2018-11-02T01:06:11.672Z,954.32
2018-11-02T01:07:11.657Z,954.36
2018-11-02T01:08:11.646Z,954.32
2018-11-02T01:09:11.630Z,954.33
2018-11-02T01:10:11.618Z,954.34
2018-11-02T01:11:11.604Z,954.34
2018-11-02T01:12:11.590Z,954.42
2018-11-02T01:13:11.577Z,954.33
2018-11-02T01:14:11.567Z,954.33
2018-11-02T01:15:11.551Z,954.28
2018-11-02T01:16:11.538Z,954.31
2018-11-02T01:17:11.526Z,954.28
2018-11-02T01:18:11.511Z,954.31
2018-11-02T01:19:11.498Z,954.23
2018-11-02T01:20:11.487Z,954.29
2018-11-02T01:21:11.473Z,954.31
2018-11-02T01:22:11.461Z,954.28
2018-11-02T01:23:11.450Z,954.31
2018-11-02T01:24:11.435Z,954.36
2018-11-02T01:25:11.484Z,954.42
2018-11-02T01:26:11.408Z,954.39
2018-11-02T01:27:11.394Z,954.42
2018-11-02T01:28:11.383Z,954.47
2018-11-02T01:29:11.370Z,954.49
2018-11-02T01:30:11.358Z,954.47
2018-11-02T01:31:11.344Z,954.37
2018-11-02T01:32:11.330Z,954.47
2018-11-02T01:33:11.319Z,954.53
2018-11-02T01:34:11.305Z,954.53
2018-11-02T01:35:11.300Z,954.61
2018-11-02T01:36:11.281Z,954.64
2018-11-02T01:37:11.269Z,954.62
2018-11-02T01:38:11.256Z,954.67
2018-11-02T01:39:11.243Z,954.67
2018-11-02T01:40:11.233Z,954.67
2018-11-02T01:41:11.219Z,954.67
2018-11-02T01:42:11.205Z,954.68
2018-11-02T01:43:11.192Z,954.72
2018-11-02T01:44:11.182Z,954.7
2018-11-02T01:45:11.176Z,954.73
2018-11-02T01:46:11.154Z,954.78
2018-11-02T01:47:11.143Z,954.82
2018-11-02T01:48:11.130Z,954.85
2018-11-02T01:49:11.115Z,954.85
2018-11-02T01:50:11.108Z,954.88
2018-11-02T01:51:11.092Z,954.85
2018-11-02T01:52:11.080Z,954.83
2018-11-02T01:53:11.067Z,954.85
2018-11-02T01:54:11.055Z,954.86
2018-11-02T01:55:11.043Z,954.75
2018-11-02T01:56:11.028Z,954.82
2018-11-02T01:57:11.018Z,954.82
2018-11-02T01:58:11.004Z,954.9
2018-11-02T01:59:10.993Z,954.82
2018-11-02T02:00:10.978Z,954.85
2018-11-02T02:01:10.969Z,954.84
2018-11-02T02:02:10.955Z,954.83
2018-11-02T02:03:10.942Z,954.76
2018-11-02T02:04:10.930Z,954.84
2018-11-02T02:05:10.919Z,954.83
2018-11-02T02:06:10.907Z,954.84
2018-11-02T02:07:10.892Z,954.78
2018-11-02T02:08:10.886Z,954.77
2018-11-02T02:09:10.869Z,954.76
2018-11-02T02:10:10.855Z,954.8
2018-11-02T02:11:10.843Z,954.76
2018-11-02T02:12:10.832Z,954.75
2018-11-02T02:13:10.893Z,954.73
2018-11-02T02:14:10.805Z,954.67
2018-11-02T02:15:10.794Z,954.74
2018-11-02T02:16:10.782Z,954.73
2018-11-02T02:17:10.768Z,954.7
2018-11-02T02:18:10.754Z,954.76
2018-11-02T02:19:10.746Z,954.78
2018-11-02T02:20:10.732Z,954.82
2018-11-02T02:21:10.719Z,954.8
2018-11-02T02:22:10.705Z,954.82
2018-11-02T02:23:10.692Z,954.83
2018-11-02T02:24:10.682Z,954.81
2018-11-02T02:25:10.670Z,954.76
2018-11-02T02:26:10.659Z,954.81
2018-11-02T02:27:10.645Z,954.79
2018-11-02T02:28:10.630Z,954.88
2018-11-02T02:29:10.617Z,954.92
2018-11-02T02:30:10.608Z,954.92
2018-11-02T02:31:10.596Z,954.96
2018-11-02T02:32:10.582Z,955.02
2018-11-02T02:33:10.570Z,954.99
2018-11-02T02:34:10.558Z,955
2018-11-02T02:35:10.543Z,955.03
2018-11-02T02:36:10.533Z,955.03
2018-11-02T02:37:10.519Z,955.04
2018-11-02T02:38:10.505Z,955.05
2018-11-02T02:39:10.493Z,955.05
2018-11-02T02:40:10.483Z,955.03
2018-11-02T02:41:10.470Z,955.03
2018-11-02T02:42:10.457Z,955.04
2018-11-02T02:43:10.445Z,955.07
2018-11-02T02:44:10.443Z,955.09
2018-11-02T02:45:10.420Z,955.08
2018-11-02T02:46:10.407Z,955.13
2018-11-02T02:47:10.394Z,955.12
2018-11-02T02:48:10.381Z,955.12
2018-11-02T02:49:10.372Z,955.13
2018-11-02T02:50:10.357Z,955.18
2018-11-02T02:51:10.346Z,955.14
2018-11-02T02:52:10.331Z,955.17
2018-11-02T02:53:10.318Z,955.16
2018-11-02T02:54:10.304Z,955.22
2018-11-02T02:55:10.293Z,955.22
2018-11-02T02:56:10.281Z,955.25
2018-11-02T02:57:10.270Z,955.24
2018-11-02T02:58:10.254Z,955.28
2018-11-02T02:59:10.243Z,955.27
2018-11-02T03:00:10.232Z,955.27
2018-11-02T03:01:10.218Z,955.29
2018-11-02T03:02:10.204Z,955.27
2018-11-02T03:03:10.192Z,955.36
2018-11-02T03:04:10.179Z,955.36
2018-11-02T03:05:10.167Z,955.38
2018-11-02T03:06:10.154Z,955.39
2018-11-02T03:07:10.141Z,955.4
2018-11-02T03:08:10.128Z,955.42
2018-11-02T03:09:10.114Z,955.4
2018-11-02T03:10:10.116Z,955.46
2018-11-02T03:11:10.297Z,955.46
2018-11-02T03:12:10.079Z,955.44
2018-11-02T03:13:10.065Z,955.46
2018-11-02T03:14:10.054Z,955.47
2018-11-02T03:15:10.042Z,955.5
2018-11-02T03:16:10.025Z,955.56
2018-11-02T03:17:10.014Z,955.56
2018-11-02T03:18:10.054Z,955.56
2018-11-02T03:19:09.988Z,955.6
2018-11-02T03:20:09.976Z,955.57
2018-11-02T03:21:09.962Z,955.54
2018-11-02T03:22:09.949Z,955.52
2018-11-02T03:23:09.939Z,955.53
2018-11-02T03:24:09.923Z,955.52
2018-11-02T03:25:09.912Z,955.49
2018-11-02T03:26:09.908Z,955.44
2018-11-02T03:27:09.884Z,955.46
2018-11-02T03:28:09.874Z,955.43
2018-11-02T03:29:09.861Z,955.42
2018-11-02T03:30:09.848Z,955.35
2018-11-02T03:31:09.833Z,955.38
2018-11-02T03:32:09.833Z,955.43
2018-11-02T03:33:09.812Z,955.49
2018-11-02T03:34:09.796Z,955.49
2018-11-02T03:35:09.786Z,955.57
2018-11-02T03:36:09.767Z,955.6
2018-11-02T03:37:09.756Z,955.65
2018-11-02T03:38:09.742Z,955.7
2018-11-02T03:39:09.730Z,955.72
2018-11-02T03:40:09.715Z,955.75
2018-11-02T03:41:09.702Z,955.75
2018-11-02T03:42:09.691Z,955.76
2018-11-02T03:43:09.677Z,955.78
2018-11-02T03:44:09.663Z,955.8
2018-11-02T03:45:09.649Z,955.82
2018-11-02T03:46:09.634Z,955.9
2018-11-02T03:47:09.621Z,955.89
2018-11-02T03:48:09.608Z,955.95
2018-11-02T03:49:09.594Z,955.96
2018-11-02T03:50:09.997Z,955.95
2018-11-02T03:51:09.567Z,955.97
2018-11-02T03:52:09.582Z,955.96
2018-11-02T03:53:09.542Z,955.96
2018-11-02T03:54:09.527Z,955.97
2018-11-02T03:55:09.520Z,955.96
2018-11-02T03:56:09.757Z,955.96
2018-11-02T03:57:09.487Z,955.94
2018-11-02T03:58:09.472Z,955.98
2018-11-02T03:59:09.459Z,955.98
2018-11-02T04:00:09.584Z,956.06
2018-11-02T04:01:09.459Z,955.98
2018-11-02T04:02:09.417Z,956.08
2018-11-02T04:03:09.403Z,956.14
2018-11-02T04:04:09.389Z,956.12
2018-11-02T04:05:09.376Z,956.05
2018-11-02T04:06:09.362Z,956.11
2018-11-02T04:07:09.350Z,956.05
2018-11-02T04:08:09.333Z,956.06
2018-11-02T04:09:09.319Z,956.11
2018-11-02T04:10:09.306Z,956.04
2018-11-02T04:11:09.292Z,956.1
2018-11-02T04:12:09.277Z,956.12
2018-11-02T04:13:09.279Z,956.19
2018-11-02T04:14:09.251Z,956.11
2018-11-02T04:15:09.238Z,956.17
2018-11-02T04:16:09.223Z,956.18
2018-11-02T04:17:09.208Z,956.22
2018-11-02T04:18:09.199Z,956.22
2018-11-02T04:19:09.181Z,956.27
2018-11-02T04:20:09.169Z,956.29
2018-11-02T04:21:09.180Z,956.26
2018-11-02T04:22:09.138Z,956.29
2018-11-02T04:23:09.125Z,956.27
2018-11-02T04:24:09.111Z,956.3
2018-11-02T04:25:09.166Z,956.27
2018-11-02T04:26:09.085Z,956.3
2018-11-02T04:27:09.068Z,956.31
2018-11-02T04:28:09.053Z,956.26
2018-11-02T04:29:09.040Z,956.29
2018-11-02T04:30:09.025Z,956.29
2018-11-02T04:31:09.098Z,956.27
2018-11-02T04:32:08.999Z,956.29
2018-11-02T04:33:08.981Z,956.3
2018-11-02T04:34:08.969Z,956.32
2018-11-02T04:35:08.958Z,956.31
2018-11-02T04:36:08.938Z,956.34
2018-11-02T04:37:08.925Z,956.35
2018-11-02T04:38:08.912Z,956.35
2018-11-02T04:39:08.897Z,956.37
2018-11-02T04:40:08.883Z,956.38
2018-11-02T04:41:08.868Z,956.35
2018-11-02T04:42:08.853Z,956.36
2018-11-02T04:43:08.855Z,956.36
2018-11-02T04:44:08.825Z,956.34
2018-11-02T04:45:08.813Z,956.4
2018-11-02T04:46:08.800Z,956.38
2018-11-02T04:47:08.781Z,956.42
2018-11-02T04:48:08.767Z,956.4
2018-11-02T04:49:08.752Z,956.34
2018-11-02T04:50:08.739Z,956.35
2018-11-02T04:51:08.785Z,956.36
2018-11-02T04:52:08.708Z,956.33
2018-11-02T04:53:08.695Z,956.41
2018-11-02T04:54:08.679Z,956.39
2018-11-02T04:55:08.665Z,956.43
2018-11-02T04:56:08.652Z,956.37
2018-11-02T04:57:08.638Z,956.41
2018-11-02T04:58:08.623Z,956.45
2018-11-02T04:59:08.606Z,956.48
2018-11-02T05:00:08.592Z,956.45
2018-11-02T05:01:08.578Z,956.45
2018-11-02T05:02:08.567Z,956.44
2018-11-02T05:03:08.550Z,956.51
2018-11-02T05:04:08.536Z,956.5
2018-11-02T05:05:08.520Z,956.53
2018-11-02T05:06:08.512Z,956.55
2018-11-02T05:07:08.492Z,956.57
2018-11-02T05:08:08.480Z,956.59
2018-11-02T05:09:08.462Z,956.56
2018-11-02T05:10:08.449Z,956.6
2018-11-02T05:11:08.454Z,956.61
2018-11-02T05:12:08.418Z,956.6
2018-11-02T05:13:08.401Z,956.59
2018-11-02T05:14:08.388Z,956.62
2018-11-02T05:15:08.375Z,956.64
2018-11-02T05:16:08.360Z,956.68
2018-11-02T05:17:08.345Z,956.63
2018-11-02T05:18:08.331Z,956.62
2018-11-02T05:19:08.316Z,956.64
2018-11-02T05:20:08.302Z,956.71
2018-11-02T05:21:08.346Z,956.72
2018-11-02T05:22:08.271Z,956.76
2018-11-02T05:23:08.262Z,956.73
2018-11-02T05:24:08.243Z,956.73
2018-11-02T05:25:08.227Z,956.74
2018-11-02T05:26:08.214Z,956.78
2018-11-02T05:27:08.199Z,956.76
2018-11-02T05:28:08.185Z,956.73
2018-11-02T05:29:08.170Z,956.73
2018-11-02T05:30:08.153Z,956.74
2018-11-02T05:31:08.142Z,956.72
2018-11-02T05:32:08.125Z,956.76
2018-11-02T05:33:08.111Z,956.75
2018-11-02T05:34:08.096Z,956.78
2018-11-02T05:35:08.079Z,956.84
2018-11-02T05:36:08.066Z,956.9
2018-11-02T05:37:08.050Z,956.93
2018-11-02T05:38:08.037Z,956.93
2018-11-02T05:39:08.021Z,956.92
2018-11-02T05:40:08.007Z,956.94
2018-11-02T05:41:07.991Z,956.91
2018-11-02T05:42:07.975Z,956.95
2018-11-02T05:43:07.961Z,956.96
2018-11-02T05:44:07.946Z,956.96
2018-11-02T05:45:07.951Z,956.95
2018-11-02T05:46:07.934Z,956.93
2018-11-02T05:47:07.936Z,956.94
2018-11-02T05:48:07.887Z,956.99
2018-11-02T05:49:07.872Z,957.01
2018-11-02T05:50:07.857Z,957
2018-11-02T05:51:07.841Z,957.02
2018-11-02T05:52:07.826Z,957.09
2018-11-02T05:53:07.814Z,957.09
2018-11-02T05:54:07.855Z,957.11
2018-11-02T05:55:07.781Z,957.16
2018-11-02T05:56:07.767Z,957.18
2018-11-02T05:57:07.768Z,957.26
2018-11-02T05:58:07.737Z,957.31
2018-11-02T05:59:07.723Z,957.33
2018-11-02T06:00:07.711Z,957.3
2018-11-02T06:01:07.691Z,957.3
2018-11-02T06:02:07.682Z,957.41
2018-11-02T06:03:07.660Z,957.37
2018-11-02T06:04:07.646Z,957.41
2018-11-02T06:05:07.631Z,957.44
2018-11-02T06:06:07.618Z,957.48
2018-11-02T06:07:07.603Z,957.55
2018-11-02T06:08:07.710Z,957.54
2018-11-02T06:09:07.572Z,957.52
2018-11-02T06:10:07.557Z,957.56
2018-11-02T06:11:07.543Z,957.57
2018-11-02T06:12:07.528Z,957.61
2018-11-02T06:13:07.512Z,957.62
2018-11-02T06:14:07.497Z,957.63
2018-11-02T06:15:07.482Z,957.65
2018-11-02T06:16:07.465Z,957.64
2018-11-02T06:17:07.461Z,957.69
2018-11-02T06:18:07.437Z,957.69
2018-11-02T06:19:07.421Z,957.67
2018-11-02T06:20:07.407Z,957.66
2018-11-02T06:21:07.393Z,957.65
2018-11-02T06:22:07.375Z,957.65
2018-11-02T06:23:07.362Z,957.68
2018-11-02T06:24:07.366Z,957.66
2018-11-02T06:25:07.335Z,957.68
2018-11-02T06:26:07.318Z,957.72
2018-11-02T06:27:07.302Z,957.72
2018-11-02T06:28:07.286Z,957.78
2018-11-02T06:29:07.273Z,957.8
2018-11-02T06:30:07.257Z,957.85
2018-11-02T06:31:07.242Z,957.82
2018-11-02T06:32:07.228Z,957.85
2018-11-02T06:33:07.213Z,957.94
2018-11-02T06:34:07.198Z,957.98
2018-11-02T06:35:07.183Z,957.99
2018-11-02T06:36:07.167Z,958.02
2018-11-02T06:37:07.153Z,958.05
2018-11-02T06:38:07.139Z,958.1
2018-11-02T06:39:07.124Z,958.05
2018-11-02T06:40:07.112Z,958.09
2018-11-02T06:41:07.095Z,958.06
2018-11-02T06:42:07.083Z,958.11
2018-11-02T06:43:07.066Z,958.12
2018-11-02T06:44:07.051Z,958.14
2018-11-02T06:45:07.168Z,958.16
2018-11-02T06:46:07.022Z,958.19
2018-11-02T06:47:07.010Z,958.22
2018-11-02T06:48:06.992Z,958.25
2018-11-02T06:49:06.978Z,958.29
2018-11-02T06:50:06.963Z,958.25
2018-11-02T06:51:07.035Z,958.26
2018-11-02T06:52:06.934Z,958.26
2018-11-02T06:53:06.923Z,958.32
2018-11-02T06:54:06.907Z,958.3
2018-11-02T06:55:06.893Z,958.26
2018-11-02T06:56:06.878Z,958.29
2018-11-02T06:57:06.867Z,958.27
2018-11-02T06:58:06.849Z,958.28
2018-11-02T06:59:06.946Z,958.31
2018-11-02T07:00:07.141Z,958.31
2018-11-02T07:01:06.806Z,958.3
2018-11-02T07:02:06.793Z,958.35
2018-11-02T07:03:06.779Z,958.33
2018-11-02T07:04:06.765Z,958.39
2018-11-02T07:05:06.753Z,958.42
2018-11-02T07:06:06.737Z,958.47
2018-11-02T07:07:06.836Z,958.48
2018-11-02T07:08:06.894Z,958.51
2018-11-02T07:09:06.725Z,958.49
2018-11-02T07:10:06.682Z,958.46
2018-11-02T07:11:06.668Z,958.51
2018-11-02T07:12:06.655Z,958.54
2018-11-02T07:13:06.641Z,958.52
2018-11-02T07:14:06.647Z,958.58
2018-11-02T07:15:06.612Z,958.53
2018-11-02T07:16:06.601Z,958.55
2018-11-02T07:17:06.586Z,958.51
2018-11-02T07:18:06.572Z,958.55
2018-11-02T07:19:06.557Z,958.56
2018-11-02T07:20:06.546Z,958.57
2018-11-02T07:21:06.531Z,958.63
2018-11-02T07:22:06.518Z,958.57
2018-11-02T07:23:06.504Z,958.55
2018-11-02T07:24:06.491Z,958.55
2018-11-02T07:25:06.582Z,958.51
2018-11-02T07:26:06.463Z,958.52
2018-11-02T07:27:06.453Z,958.53
2018-11-02T07:28:06.440Z,958.57
2018-11-02T07:29:06.424Z,958.56
2018-11-02T07:30:06.492Z,958.64
2018-11-02T07:31:06.398Z,958.62
2018-11-02T07:32:06.385Z,958.68
2018-11-02T07:33:06.373Z,958.68
2018-11-02T07:34:06.394Z,958.71
2018-11-02T07:35:06.346Z,958.7
2018-11-02T07:36:06.334Z,958.71
2018-11-02T07:37:06.320Z,958.72
2018-11-02T07:38:06.308Z,958.72
2018-11-02T07:39:06.296Z,958.74
2018-11-02T07:40:06.282Z,958.7
2018-11-02T07:41:06.268Z,958.7
2018-11-02T07:42:06.256Z,958.72
2018-11-02T07:43:06.242Z,958.67
2018-11-02T07:44:06.228Z,958.75
2018-11-02T07:45:06.217Z,958.67
2018-11-02T07:46:06.212Z,958.72
2018-11-02T07:47:06.190Z,958.74
2018-11-02T07:48:06.179Z,958.76
2018-11-02T07:49:06.167Z,958.8
2018-11-02T07:50:06.153Z,958.83
2018-11-02T07:51:06.140Z,958.87
2018-11-02T07:52:06.128Z,958.9
2018-11-02T07:53:06.125Z,958.92
2018-11-02T07:54:06.101Z,958.93
2018-11-02T07:55:06.091Z,958.92
2018-11-02T07:56:06.077Z,958.89
2018-11-02T07:57:06.065Z,958.92
2018-11-02T07:58:06.050Z,958.9
2018-11-02T07:59:06.040Z,958.97
2018-11-02T08:00:06.024Z,959
2018-11-02T08:01:06.014Z,959.01
2018-11-02T08:02:06.000Z,959
2018-11-02T08:03:05.987Z,959.01
2018-11-02T08:04:05.984Z,959.06
2018-11-02T08:05:05.964Z,959.02
2018-11-02T08:06:05.951Z,959.04
2018-11-02T08:07:05.938Z,959.03
2018-11-02T08:08:05.926Z,959.05
2018-11-02T08:09:05.913Z,959.11
2018-11-02T08:10:05.902Z,959.11
2018-11-02T08:11:05.889Z,959.14
2018-11-02T08:12:05.877Z,959.12
2018-11-02T08:13:05.864Z,959.2
2018-11-02T08:14:05.851Z,959.21
2018-11-02T08:15:05.840Z,959.2
2018-11-02T08:16:05.825Z,959.24
2018-11-02T08:17:05.816Z,959.26
2018-11-02T08:18:05.803Z,959.22
2018-11-02T08:19:05.890Z,959.24
2018-11-02T08:20:05.777Z,959.24
2018-11-02T08:21:05.763Z,959.25
2018-11-02T08:22:05.757Z,959.24
2018-11-02T08:23:05.737Z,959.31
2018-11-02T08:24:05.730Z,959.37
2018-11-02T08:25:05.713Z,959.44
2018-11-02T08:26:05.704Z,959.43
2018-11-02T08:27:05.688Z,959.37
2018-11-02T08:28:05.676Z,959.41
2018-11-02T08:29:05.664Z,959.35
2018-11-02T08:30:05.656Z,959.38
2018-11-02T08:31:05.640Z,959.38
2018-11-02T08:32:05.663Z,959.39
2018-11-02T08:33:05.615Z,959.41
2018-11-02T08:34:05.647Z,959.45
2018-11-02T08:35:05.591Z,959.47
2018-11-02T08:36:05.580Z,959.44
2018-11-02T08:37:05.570Z,959.41
2018-11-02T08:38:05.555Z,959.43
2018-11-02T08:39:05.543Z,959.46
2018-11-02T08:40:05.529Z,959.48
2018-11-02T08:41:05.523Z,959.51
2018-11-02T08:42:05.510Z,959.49
2018-11-02T08:43:05.496Z,959.55
2018-11-02T08:44:05.485Z,959.5
2018-11-02T08:45:05.472Z,959.48
2018-11-02T08:46:05.461Z,959.47
2018-11-02T08:47:05.453Z,959.38
2018-11-02T08:48:05.440Z,959.36
2018-11-02T08:49:05.425Z,959.43
2018-11-02T08:50:05.415Z,959.43
2018-11-02T08:51:05.402Z,959.49
2018-11-02T08:52:05.420Z,959.53
2018-11-02T08:53:05.381Z,959.55
2018-11-02T08:54:05.367Z,959.55
2018-11-02T08:55:05.362Z,959.57
2018-11-02T08:56:05.347Z,959.54
2018-11-02T08:57:05.337Z,959.62
2018-11-02T08:58:05.452Z,959.62
2018-11-02T08:59:05.493Z,959.57
2018-11-02T09:00:05.330Z,959.53
2018-11-02T09:01:05.288Z,959.54
2018-11-02T09:02:05.280Z,959.55
2018-11-02T09:03:05.267Z,959.54
2018-11-02T09:04:05.260Z,959.44
2018-11-02T09:05:05.331Z,959.46
2018-11-02T09:06:05.234Z,959.5
2018-11-02T09:07:05.227Z,959.44
2018-11-02T09:08:05.212Z,959.54
2018-11-02T09:09:05.202Z,959.54
2018-11-02T09:10:05.191Z,959.57
2018-11-02T09:11:05.179Z,959.6
2018-11-02T09:12:05.250Z,959.6
2018-11-02T09:13:05.161Z,959.59
2018-11-02T09:14:05.146Z,959.61
2018-11-02T09:15:05.137Z,959.65
2018-11-02T09:16:05.130Z,959.69
2018-11-02T09:17:05.113Z,959.68
2018-11-02T09:18:05.104Z,959.68
2018-11-02T09:19:05.141Z,959.73
2018-11-02T09:20:05.082Z,959.74
2018-11-02T09:21:05.071Z,959.7
2018-11-02T09:22:05.063Z,959.69
2018-11-02T09:23:05.051Z,959.7
2018-11-02T09:24:05.040Z,959.73
2018-11-02T09:25:05.029Z,959.74
2018-11-02T09:26:05.019Z,959.74
2018-11-02T09:27:05.008Z,959.73
2018-11-02T09:28:05.225Z,959.73
2018-11-02T09:29:05.036Z,959.75
2018-11-02T09:30:04.975Z,959.76
2018-11-02T09:31:05.000Z,959.75
2018-11-02T09:32:04.965Z,959.73
2018-11-02T09:33:04.944Z,959.77
2018-11-02T09:34:04.935Z,959.77
2018-11-02T09:35:04.926Z,959.78
2018-11-02T09:36:04.916Z,959.83
2018-11-02T09:37:04.903Z,959.78
2018-11-02T09:38:04.894Z,959.78
2018-11-02T09:39:04.885Z,959.74
2018-11-02T09:40:04.888Z,959.72
2018-11-02T09:41:04.865Z,959.77
2018-11-02T09:42:04.856Z,959.74
2018-11-02T09:43:04.844Z,959.7
2018-11-02T09:44:04.835Z,959.71
2018-11-02T09:45:04.823Z,959.75
2018-11-02T09:46:04.814Z,959.8
2018-11-02T09:47:04.807Z,959.78
2018-11-02T09:48:04.794Z,959.84
2018-11-02T09:49:04.783Z,959.86
2018-11-02T09:50:04.776Z,959.88
2018-11-02T09:51:04.764Z,959.96
2018-11-02T09:52:04.812Z,959.96
2018-11-02T09:53:04.745Z,959.98
2018-11-02T09:54:04.741Z,959.98
2018-11-02T09:55:04.726Z,959.92
2018-11-02T09:56:04.716Z,959.97
2018-11-02T09:57:04.706Z,959.96
2018-11-02T09:58:04.695Z,959.95
2018-11-02T09:59:04.685Z,959.95
2018-11-02T10:00:04.675Z,959.98
2018-11-02T10:01:04.991Z,959.96
2018-11-02T10:02:04.714Z,959.99
2018-11-02T10:03:04.646Z,960.04
2018-11-02T10:04:04.637Z,959.99
2018-11-02T10:05:04.629Z,960
2018-11-02T10:06:04.618Z,959.97
2018-11-02T10:07:04.608Z,959.92
2018-11-02T10:08:04.601Z,959.96
2018-11-02T10:09:04.601Z,959.97
2018-11-02T10:10:04.580Z,959.99
2018-11-02T10:11:04.580Z,959.97
2018-11-02T10:12:04.562Z,959.91
2018-11-02T10:13:04.556Z,959.88
2018-11-02T10:14:04.543Z,959.94
2018-11-02T10:15:04.533Z,959.99
2018-11-02T10:16:04.524Z,960.05
2018-11-02T10:17:04.511Z,960
2018-11-02T10:18:04.504Z,960
2018-11-02T10:19:04.494Z,960.05
2018-11-02T10:20:04.485Z,960.03
2018-11-02T10:21:04.474Z,960
2018-11-02T10:22:04.466Z,959.93
2018-11-02T10:23:04.457Z,959.91
2018-11-02T10:24:04.450Z,959.88
2018-11-02T10:25:04.441Z,959.87
2018-11-02T10:26:04.430Z,959.84
2018-11-02T10:27:04.421Z,959.9
2018-11-02T10:28:04.435Z,959.91
2018-11-02T10:29:04.402Z,959.89
2018-11-02T10:30:04.392Z,959.94
2018-11-02T10:31:04.382Z,959.92
2018-11-02T10:32:04.374Z,959.93
2018-11-02T10:33:04.364Z,959.88
2018-11-02T10:34:04.357Z,959.85
2018-11-02T10:35:04.347Z,959.92
2018-11-02T10:36:04.470Z,959.89
2018-11-02T10:37:04.330Z,959.9
2018-11-02T10:38:04.321Z,959.89
2018-11-02T10:39:04.313Z,959.89
2018-11-02T10:40:04.301Z,959.92
2018-11-02T10:41:04.291Z,959.96
2018-11-02T10:42:04.282Z,959.9
2018-11-02T10:43:04.272Z,959.88
2018-11-02T10:44:04.267Z,959.91
2018-11-02T10:45:04.458Z,959.9
2018-11-02T10:46:04.249Z,959.9
2018-11-02T10:47:04.238Z,959.88
2018-11-02T10:48:04.227Z,959.92
2018-11-02T10:49:04.219Z,959.93
2018-11-02T10:50:04.208Z,959.92
2018-11-02T10:51:04.255Z,959.94
2018-11-02T10:52:04.190Z,959.97
2018-11-02T10:53:04.179Z,959.89
2018-11-02T10:54:04.170Z,959.99
2018-11-02T10:55:04.162Z,959.89
2018-11-02T10:56:04.152Z,960
2018-11-02T10:57:04.142Z,959.97
2018-11-02T10:58:04.133Z,960
2018-11-02T10:59:04.124Z,960
2018-11-02T11:00:04.118Z,960.02
2018-11-02T11:01:04.287Z,960.05
2018-11-02T11:02:04.095Z,960.05
2018-11-02T11:03:04.086Z,960.04
2018-11-02T11:04:04.090Z,960.09
2018-11-02T11:05:04.068Z,960.09
2018-11-02T11:06:04.058Z,960.1
2018-11-02T11:07:04.049Z,960.1
2018-11-02T11:08:04.038Z,960.14
2018-11-02T11:09:04.031Z,960.18
2018-11-02T11:10:04.020Z,960.18
2018-11-02T11:11:04.010Z,960.21
2018-11-02T11:12:04.090Z,960.19
2018-11-02T11:13:04.338Z,960.18
2018-11-02T11:14:03.984Z,960.17
2018-11-02T11:15:03.978Z,960.18
2018-11-02T11:16:03.965Z,960.1
2018-11-02T11:17:03.955Z,960.05
2018-11-02T11:18:03.947Z,960.06
2018-11-02T11:19:03.938Z,960.05
2018-11-02T11:20:03.929Z,959.98
2018-11-02T11:21:03.926Z,959.95
2018-11-02T11:22:03.909Z,959.91
2018-11-02T11:23:03.900Z,959.86
2018-11-02T11:24:03.893Z,959.84
2018-11-02T11:25:03.884Z,959.77
2018-11-02T11:26:03.877Z,959.77
2018-11-02T11:27:03.867Z,959.77
2018-11-02T11:28:03.857Z,959.75
2018-11-02T11:29:03.850Z,959.71
2018-11-02T11:30:03.840Z,959.73
2018-11-02T11:31:03.832Z,959.7
2018-11-02T11:32:03.823Z,959.68
2018-11-02T11:33:03.812Z,959.64
2018-11-02T11:34:03.869Z,959.7
2018-11-02T11:35:03.795Z,959.67
2018-11-02T11:36:03.788Z,959.68
2018-11-02T11:37:03.779Z,959.68
2018-11-02T11:38:03.769Z,959.66
2018-11-02T11:39:03.762Z,959.67
2018-11-02T11:40:03.754Z,959.68
2018-11-02T11:41:03.743Z,959.64
2018-11-02T11:42:03.735Z,959.64
2018-11-02T11:43:03.727Z,959.6
2018-11-02T11:44:03.716Z,959.56
2018-11-02T11:45:03.711Z,959.63
2018-11-02T11:46:03.701Z,959.6
2018-11-02T11:47:03.694Z,959.62
2018-11-02T11:48:03.690Z,959.57
2018-11-02T11:49:03.682Z,959.61
2018-11-02T11:50:03.667Z,959.63
2018-11-02T11:51:03.658Z,959.63
2018-11-02T11:52:03.649Z,959.63
2018-11-02T11:53:03.643Z,959.68
2018-11-02T11:54:03.633Z,959.65
2018-11-02T11:55:03.623Z,959.6
2018-11-02T11:56:03.615Z,959.63
2018-11-02T11:57:03.606Z,959.59
2018-11-02T11:58:03.599Z,959.61
2018-11-02T11:59:03.590Z,959.6
2018-11-02T12:00:03.583Z,959.64
2018-11-02T12:01:03.573Z,959.64
2018-11-02T12:02:03.600Z,959.66
2018-11-02T12:03:03.559Z,959.67
2018-11-02T12:04:03.547Z,959.64
2018-11-02T12:05:03.660Z,959.64
2018-11-02T12:06:03.527Z,959.67
2018-11-02T12:07:03.521Z,959.64
2018-11-02T12:08:03.512Z,959.64
2018-11-02T12:09:03.504Z,959.65
2018-11-02T12:10:03.494Z,959.64
2018-11-02T12:11:03.485Z,959.61
2018-11-02T12:12:03.477Z,959.63
2018-11-02T12:13:03.468Z,959.59
2018-11-02T12:14:03.460Z,959.61
2018-11-02T12:15:03.455Z,959.62
2018-11-02T12:16:03.527Z,959.59
2018-11-02T12:17:03.432Z,959.55
2018-11-02T12:18:03.424Z,959.57
2018-11-02T12:19:03.417Z,959.61
2018-11-02T12:20:03.410Z,959.58
2018-11-02T12:21:03.398Z,959.58
2018-11-02T12:22:03.504Z,959.59
2018-11-02T12:23:03.385Z,959.59
2018-11-02T12:24:03.375Z,959.53
2018-11-02T12:25:03.364Z,959.54
2018-11-02T12:26:03.356Z,959.49
2018-11-02T12:27:03.370Z,959.54
2018-11-02T12:28:03.386Z,959.51
2018-11-02T12:29:03.330Z,959.51
2018-11-02T12:30:03.319Z,959.54
2018-11-02T12:31:03.312Z,959.6